Time;durP1;ratioP1;P1;durP2;ratioP2;P2;SDS_P1;SDS_P2;PMS_P1;PMS_P2;Temp;Humidity;BMP_temperature;BMP_pressure;BME280_temperature;BME280_humidity;BME280_pressure;Samples;Min_cycle;Max_cycle;Signal;HPM_P1;HPM_P2
2021/09/23 00:01:18;;;;;;;9.40;5.60;;;9.10;99.90;;;;;;5093132;28;20028;-67
2021/09/23 00:04:16;;;;;;;8.32;5.93;;;9.10;99.90;;;;;;5092257;28;20028;-67
2021/09/23 00:06:30;;;;;;;8.73;5.82;;;9.10;99.90;;;;;;5091910;28;20072;-67
2021/09/23 00:08:55;;;;;;;9.80;5.38;;;9.10;99.90;;;;;;5091943;28;20105;-67
2021/09/23 00:11:21;;;;;;;7.70;5.70;;;9.00;99.90;;;;;;5091828;28;20445;-67
2021/09/23 00:13:47;;;;;;;10.82;5.25;;;9.00;99.90;;;;;;5073088;28;20461;-67
2021/09/23 00:16:13;;;;;;;9.60;5.80;;;9.00;99.90;;;;;;5091333;28;20031;-67
2021/09/23 00:18:39;;;;;;;10.45;5.55;;;9.00;99.90;;;;;;5091400;28;20441;-67
2021/09/23 00:21:06;;;;;;;7.82;5.75;;;9.00;99.90;;;;;;5091946;28;20107;-67
2021/09/23 00:23:33;;;;;;;8.65;4.97;;;9.00;99.90;;;;;;5091396;28;20089;-67
2021/09/23 00:25:59;;;;;;;8.10;5.43;;;9.00;99.90;;;;;;5091459;28;20023;-67
2021/09/23 00:28:24;;;;;;;7.13;5.60;;;9.00;99.90;;;;;;5091787;28;20051;-67
2021/09/23 00:30:50;;;;;;;12.82;6.05;;;9.00;99.90;;;;;;5090902;28;20147;-67
2021/09/23 00:33:17;;;;;;;9.73;5.80;;;9.00;99.90;;;;;;5092079;28;20036;-68
2021/09/23 00:35:42;;;;;;;9.02;5.85;;;9.00;99.90;;;;;;5090357;28;20020;-67
2021/09/23 00:38:08;;;;;;;8.45;6.30;;;8.90;99.90;;;;;;5091518;28;20028;-67
2021/09/23 00:40:34;;;;;;;9.65;5.82;;;8.90;99.90;;;;;;5090724;28;20485;-67
2021/09/23 00:43:00;;;;;;;6.88;5.45;;;8.90;99.90;;;;;;5091192;28;20044;-67
2021/09/23 00:45:26;;;;;;;7.57;5.72;;;8.80;99.90;;;;;;5091284;28;20024;-68
2021/09/23 00:47:51;;;;;;;7.28;6.18;;;8.80;99.90;;;;;;5090902;28;20092;-67
2021/09/23 00:50:20;;;;;;;7.32;5.93;;;8.70;99.90;;;;;;5091318;28;20036;-67
2021/09/23 00:52:46;;;;;;;7.70;6.15;;;8.70;99.90;;;;;;5087304;28;20024;-67
2021/09/23 00:55:12;;;;;;;9.55;6.95;;;8.70;99.90;;;;;;5091571;28;20078;-67
2021/09/23 00:57:39;;;;;;;7.32;6.50;;;8.60;99.90;;;;;;5090705;28;20385;-67
2021/09/23 01:00:07;;;;;;;9.00;7.38;;;8.60;99.90;;;;;;5091170;28;20125;-67
2021/09/23 01:02:33;;;;;;;9.40;6.63;;;8.50;99.90;;;;;;5072132;28;20039;-67
2021/09/23 01:04:59;;;;;;;7.53;6.07;;;8.50;99.90;;;;;;5091290;28;20497;-67
2021/09/23 01:07:25;;;;;;;9.63;6.22;;;8.60;99.90;;;;;;5073183;28;20373;-67
2021/09/23 01:09:53;;;;;;;9.07;5.88;;;8.60;99.90;;;;;;5090279;28;20028;-67
2021/09/23 01:12:21;;;;;;;9.38;6.45;;;8.50;99.90;;;;;;5090964;28;20028;-67
2021/09/23 01:14:48;;;;;;;9.98;6.57;;;8.50;99.90;;;;;;5090473;28;20043;-67
2021/09/23 01:17:14;;;;;;;7.35;6.00;;;8.50;99.90;;;;;;5090861;28;20032;-67
2021/09/23 01:19:41;;;;;;;8.90;6.60;;;8.40;99.90;;;;;;5090756;28;20028;-67
2021/09/23 01:22:07;;;;;;;12.52;7.45;;;8.40;99.90;;;;;;5072987;28;20080;-67
2021/09/23 01:24:36;;;;;;;8.90;6.80;;;8.40;99.90;;;;;;5090706;28;20043;-67
2021/09/23 01:27:02;;;;;;;12.90;7.00;;;8.30;99.90;;;;;;5090980;28;20051;-67
2021/09/23 01:29:28;;;;;;;9.38;6.68;;;8.30;99.90;;;;;;5090980;28;20919;-67
2021/09/23 01:31:55;;;;;;;11.50;7.65;;;8.30;99.90;;;;;;5090271;28;20020;-67
2021/09/23 01:34:20;;;;;;;10.95;7.53;;;8.30;99.90;;;;;;5091177;28;20115;-67
2021/09/23 01:36:46;;;;;;;10.60;6.93;;;8.40;99.90;;;;;;5089902;28;20119;-67
2021/09/23 01:39:24;;;;;;;9.18;6.60;;;8.40;99.90;;;;;;5091163;28;20428;-67
2021/09/23 01:41:50;;;;;;;11.65;7.47;;;8.40;99.90;;;;;;5071873;28;20063;-67
2021/09/23 01:44:16;;;;;;;8.50;6.78;;;8.30;99.90;;;;;;5091106;28;20032;-67
2021/09/23 01:46:42;;;;;;;9.70;7.00;;;8.30;99.90;;;;;;5089920;28;20035;-67
2021/09/23 01:49:07;;;;;;;8.13;6.43;;;8.30;99.90;;;;;;5091187;28;20807;-67
2021/09/23 01:51:33;;;;;;;8.80;6.35;;;8.20;99.90;;;;;;5090490;28;20112;-67
2021/09/23 01:53:59;;;;;;;9.73;6.88;;;8.20;99.90;;;;;;5090239;28;20106;-67
2021/09/23 01:56:25;;;;;;;9.38;6.30;;;8.20;99.90;;;;;;5090512;28;20434;-67
2021/09/23 01:58:51;;;;;;;12.25;7.18;;;8.10;99.90;;;;;;5089906;28;20028;-67
2021/09/23 02:01:17;;;;;;;7.70;6.05;;;8.10;99.90;;;;;;5090520;28;20566;-67
2021/09/23 02:03:43;;;;;;;10.48;7.25;;;8.10;99.90;;;;;;5089910;28;20035;-67
2021/09/23 02:06:09;;;;;;;9.65;7.50;;;8.10;99.90;;;;;;5090808;28;20031;-67
2021/09/23 02:08:34;;;;;;;13.20;7.95;;;8.20;99.90;;;;;;5090425;28;20028;-67
2021/09/23 02:11:00;;;;;;;12.50;8.05;;;8.20;99.90;;;;;;5089668;28;20032;-67
2021/09/23 02:13:26;;;;;;;9.27;6.72;;;8.20;99.90;;;;;;5092098;28;20032;-67
2021/09/23 02:15:51;;;;;;;12.20;7.22;;;8.20;99.90;;;;;;5093416;28;20020;-67
2021/09/23 02:18:17;;;;;;;11.88;7.43;;;8.20;99.90;;;;;;5094371;28;20481;-68
2021/09/23 02:20:43;;;;;;;13.75;7.55;;;8.20;99.90;;;;;;5093513;28;20481;-67
2021/09/23 02:23:09;;;;;;;11.77;7.57;;;8.20;99.90;;;;;;5093801;28;20068;-67
2021/09/23 02:25:35;;;;;;;14.27;7.70;;;8.30;99.90;;;;;;5093420;28;20488;-67
2021/09/23 02:28:01;;;;;;;13.02;7.10;;;8.30;99.90;;;;;;5093402;28;20099;-67
2021/09/23 02:30:28;;;;;;;9.85;6.63;;;8.30;99.90;;;;;;5094330;28;20019;-67
2021/09/23 02:32:54;;;;;;;13.65;6.82;;;8.20;99.90;;;;;;5093480;28;20059;-67
2021/09/23 02:35:19;;;;;;;10.23;6.65;;;8.20;99.90;;;;;;5093942;28;20489;-67
2021/09/23 02:37:45;;;;;;;14.13;7.55;;;8.20;99.90;;;;;;5093312;28;20030;-67
2021/09/23 02:40:11;;;;;;;12.20;8.00;;;8.10;99.90;;;;;;5093677;28;20024;-66
2021/09/23 02:42:37;;;;;;;14.77;8.18;;;8.10;99.90;;;;;;5085357;28;20035;-67
2021/09/23 02:45:04;;;;;;;11.65;7.68;;;8.10;99.90;;;;;;5093724;28;20040;-67
2021/09/23 02:47:30;;;;;;;8.82;7.22;;;8.10;99.90;;;;;;5093500;28;20032;-67
2021/09/23 02:49:56;;;;;;;13.23;8.10;;;8.10;99.90;;;;;;5093087;28;20031;-67
2021/09/23 02:52:22;;;;;;;13.40;7.47;;;8.10;99.90;;;;;;5093702;28;20139;-67
2021/09/23 02:54:47;;;;;;;17.17;8.65;;;8.10;99.90;;;;;;5092654;28;20110;-67
2021/09/23 02:57:13;;;;;;;10.68;7.85;;;8.00;99.90;;;;;;5093515;28;20382;-68
2021/09/23 02:59:39;;;;;;;14.07;7.43;;;8.00;99.90;;;;;;5093020;28;20374;-67
2021/09/23 03:02:05;;;;;;;12.63;7.72;;;8.10;99.90;;;;;;5093197;28;20032;-67
2021/09/23 03:04:31;;;;;;;13.68;7.93;;;8.10;99.90;;;;;;5092904;28;20028;-67
2021/09/23 03:06:57;;;;;;;13.18;8.18;;;8.00;99.90;;;;;;5092439;28;20681;-67
2021/09/23 03:09:23;;;;;;;13.60;8.35;;;8.00;99.90;;;;;;5093504;28;20028;-67
2021/09/23 03:11:49;;;;;;;10.70;7.63;;;8.00;99.90;;;;;;5074592;28;20032;-66
2021/09/23 03:14:15;;;;;;;8.82;7.20;;;7.90;99.90;;;;;;5093484;28;20130;-67
2021/09/23 03:16:41;;;;;;;11.45;7.57;;;7.90;99.90;;;;;;5092220;28;20135;-67
2021/09/23 03:19:06;;;;;;;9.50;7.00;;;7.80;99.90;;;;;;5093223;28;20043;-67
2021/09/23 03:21:32;;;;;;;11.60;7.63;;;7.80;99.90;;;;;;5093207;28;20036;-67
2021/09/23 03:23:57;;;;;;;9.68;6.32;;;7.80;99.90;;;;;;5092304;28;20067;-67
2021/09/23 03:26:23;;;;;;;10.52;6.63;;;7.70;99.90;;;;;;5092185;28;20052;-67
2021/09/23 03:28:49;;;;;;;10.00;7.38;;;7.60;99.90;;;;;;5091896;28;20075;-67
2021/09/23 03:31:15;;;;;;;13.35;7.45;;;7.60;99.90;;;;;;5093220;28;20414;-68
2021/09/23 03:33:40;;;;;;;13.10;8.10;;;7.60;99.90;;;;;;5091842;28;20461;-67
2021/09/23 03:36:06;;;;;;;14.50;8.68;;;7.60;99.90;;;;;;5092913;28;20028;-67
2021/09/23 03:38:32;;;;;;;14.05;9.20;;;7.60;99.90;;;;;;5092665;28;20036;-67
2021/09/23 03:40:57;;;;;;;14.98;9.80;;;7.70;99.90;;;;;;5092101;28;20051;-67
2021/09/23 03:43:23;;;;;;;13.15;8.82;;;7.70;99.90;;;;;;5092841;28;20481;-67
2021/09/23 03:45:50;;;;;;;13.25;9.07;;;7.80;99.90;;;;;;5091416;28;20032;-67
2021/09/23 03:48:17;;;;;;;11.82;8.63;;;7.80;99.90;;;;;;5092533;28;20035;-67
2021/09/23 03:50:42;;;;;;;11.02;7.80;;;7.80;99.90;;;;;;5091598;28;20020;-66
2021/09/23 03:53:08;;;;;;;11.18;9.02;;;7.80;99.90;;;;;;5092438;28;20397;-68
2021/09/23 03:55:34;;;;;;;14.10;8.13;;;7.70;99.90;;;;;;5092934;28;20095;-67
2021/09/23 03:58:00;;;;;;;13.45;9.00;;;7.70;99.90;;;;;;5091548;28;20046;-66
2021/09/23 04:00:26;;;;;;;12.90;8.15;;;7.60;99.90;;;;;;5092639;28;20028;-67
2021/09/23 04:02:52;;;;;;;10.65;7.80;;;7.60;99.90;;;;;;5091079;28;20457;-66
2021/09/23 04:05:18;;;;;;;13.75;8.50;;;7.60;99.90;;;;;;5092339;28;20024;-66
2021/09/23 04:07:44;;;;;;;15.57;9.00;;;7.50;99.90;;;;;;5091296;28;20073;-67
2021/09/23 04:10:10;;;;;;;13.68;9.38;;;7.50;99.90;;;;;;5092213;28;20028;-66
2021/09/23 04:12:36;;;;;;;13.60;9.13;;;7.60;99.90;;;;;;5092377;28;20029;-67
2021/09/23 04:15:04;;;;;;;14.65;9.40;;;7.60;99.90;;;;;;5091128;28;20040;-66
2021/09/23 04:17:30;;;;;;;14.68;9.63;;;7.60;99.90;;;;;;5092118;28;20105;-67
2021/09/23 04:19:55;;;;;;;14.43;10.60;;;7.60;99.90;;;;;;5090843;28;20099;-66
2021/09/23 04:22:21;;;;;;;13.10;10.20;;;7.60;99.90;;;;;;5092412;28;20438;-67
2021/09/23 04:24:47;;;;;;;14.10;9.82;;;7.70;99.90;;;;;;5091185;28;20122;-66
2021/09/23 04:27:13;;;;;;;17.77;10.18;;;7.70;99.90;;;;;;5091938;28;20059;-66
2021/09/23 04:29:43;;;;;;;16.13;11.40;;;7.70;99.90;;;;;;5091822;28;20024;-67
2021/09/23 04:32:12;;;;;;;20.88;10.82;;;7.70;99.90;;;;;;5091679;28;20032;-67
2021/09/23 04:34:38;;;;;;;17.02;10.32;;;7.80;99.90;;;;;;5091440;28;20068;-67
2021/09/23 04:37:04;;;;;;;16.20;10.07;;;7.80;99.90;;;;;;5090300;28;20161;-67
2021/09/23 04:39:30;;;;;;;14.45;9.77;;;7.80;99.90;;;;;;5091055;28;20027;-67
2021/09/23 04:41:56;;;;;;;16.38;9.38;;;7.80;99.90;;;;;;5090736;28;20044;-67
2021/09/23 04:44:22;;;;;;;14.50;10.07;;;7.70;99.90;;;;;;5090612;28;20089;-68
2021/09/23 04:46:48;;;;;;;16.15;10.25;;;7.70;99.90;;;;;;5090936;28;20379;-67
2021/09/23 04:49:13;;;;;;;17.63;10.55;;;7.60;99.90;;;;;;5091002;28;20028;-69
2021/09/23 04:51:40;;;;;;;16.33;10.20;;;7.60;99.90;;;;;;5091314;28;20056;-67
2021/09/23 04:54:07;;;;;;;14.50;9.43;;;7.60;99.90;;;;;;5077457;28;20036;-68
2021/09/23 04:56:33;;;;;;;13.15;9.85;;;7.50;99.90;;;;;;5082664;28;20036;-68
2021/09/23 04:58:59;;;;;;;14.98;9.95;;;7.50;99.90;;;;;;5089957;28;20032;-67
2021/09/23 05:01:25;;;;;;;19.08;11.07;;;7.40;99.90;;;;;;5082276;28;20032;-68
2021/09/23 05:03:50;;;;;;;16.48;10.52;;;7.40;99.90;;;;;;5090230;28;20467;-67
2021/09/23 05:06:16;;;;;;;26.23;13.95;;;7.40;99.90;;;;;;5090706;28;20028;-68
2021/09/23 05:08:42;;;;;;;19.08;13.45;;;7.30;99.90;;;;;;5090917;28;20028;-67
2021/09/23 05:11:07;;;;;;;23.33;13.02;;;7.40;99.90;;;;;;5090207;28;20444;-68
2021/09/23 05:13:33;;;;;;;25.45;14.23;;;7.40;99.90;;;;;;5091190;28;20038;-70
2021/09/23 05:15:59;;;;;;;25.17;14.52;;;7.50;99.90;;;;;;5089992;28;20543;-70
2021/09/23 05:18:24;;;;;;;22.52;14.07;;;7.50;99.90;;;;;;5090860;28;20032;-70
2021/09/23 05:20:50;;;;;;;24.55;14.65;;;7.50;99.90;;;;;;5090161;28;20085;-70
2021/09/23 05:23:16;;;;;;;23.23;15.10;;;7.50;99.90;;;;;;5090432;28;20109;-68
2021/09/23 05:25:42;;;;;;;25.92;15.20;;;7.60;99.90;;;;;;5082618;28;20562;-67
2021/09/23 05:28:08;;;;;;;24.40;15.88;;;7.60;99.90;;;;;;5090902;28;20120;-70
2021/09/23 05:30:33;;;;;;;27.10;16.10;;;7.70;99.90;;;;;;5089948;28;20034;-69
2021/09/23 05:32:59;;;;;;;26.15;14.57;;;7.70;99.90;;;;;;5088915;28;20035;-67
2021/09/23 05:35:25;;;;;;;25.35;15.02;;;7.80;99.90;;;;;;5090080;28;20024;-67
2021/09/23 05:37:50;;;;;;;20.95;13.30;;;7.80;99.90;;;;;;5090108;28;20039;-67
2021/09/23 05:40:16;;;;;;;24.23;13.77;;;7.80;99.90;;;;;;5090933;28;20031;-67
2021/09/23 05:42:42;;;;;;;20.45;13.02;;;7.80;99.90;;;;;;5090063;28;20114;-67
2021/09/23 05:45:11;;;;;;;19.20;12.63;;;7.80;99.90;;;;;;5082462;28;20036;-68
2021/09/23 05:47:38;;;;;;;20.02;13.65;;;7.80;99.90;;;;;;5077709;28;20036;-68
2021/09/23 05:50:04;;;;;;;22.77;13.93;;;7.80;99.90;;;;;;5086408;28;20453;-68
2021/09/23 05:52:30;;;;;;;25.02;14.55;;;7.80;99.90;;;;;;5089160;28;20047;-68
2021/09/23 05:54:56;;;;;;;21.15;12.88;;;7.90;99.90;;;;;;5087732;28;20081;-68
2021/09/23 05:57:26;;;;;;;22.83;13.02;;;8.00;99.90;;;;;;5091861;28;20035;-71
2021/09/23 05:59:51;;;;;;;21.92;14.40;;;8.00;99.90;;;;;;5093997;28;20043;-67
2021/09/23 06:02:17;;;;;;;17.80;13.10;;;8.10;99.90;;;;;;5094268;28;20039;-68
2021/09/23 06:04:43;;;;;;;18.92;12.10;;;8.20;99.90;;;;;;5093673;28;20069;-68
2021/09/23 06:07:09;;;;;;;16.20;10.55;;;8.40;99.90;;;;;;5094050;28;20055;-68
2021/09/23 06:09:35;;;;;;;16.75;11.60;;;8.40;99.90;;;;;;5093932;28;20489;-67
2021/09/23 06:12:00;;;;;;;19.27;12.25;;;8.40;99.90;;;;;;5093269;28;20032;-68
2021/09/23 06:14:28;;;;;;;21.13;13.32;;;8.40;99.90;;;;;;5093543;28;20116;-68
2021/09/23 06:16:54;;;;;;;22.63;12.85;;;8.50;99.90;;;;;;5093122;28;20036;-67
2021/09/23 06:19:20;;;;;;;23.00;13.55;;;8.60;99.90;;;;;;5093605;28;20032;-68
2021/09/23 06:21:45;;;;;;;24.05;12.70;;;8.80;99.90;;;;;;5093374;28;20027;-67
2021/09/23 06:24:11;;;;;;;21.17;13.02;;;8.90;99.90;;;;;;5093934;28;20043;-67
2021/09/23 06:26:37;;;;;;;18.58;11.93;;;8.90;99.90;;;;;;5093944;28;20031;-68
2021/09/23 06:29:03;;;;;;;14.70;11.02;;;8.90;99.90;;;;;;5093544;28;20024;-67
2021/09/23 06:31:29;;;;;;;13.60;10.13;;;9.00;99.90;;;;;;5093460;28;20077;-67
2021/09/23 06:33:54;;;;;;;16.42;11.23;;;9.00;99.90;;;;;;5093563;28;20385;-68
2021/09/23 06:36:20;;;;;;;19.38;12.68;;;9.10;99.90;;;;;;5093644;28;20473;-68
2021/09/23 06:38:46;;;;;;;16.80;11.98;;;9.10;99.90;;;;;;5092985;28;20507;-68
2021/09/23 06:41:11;;;;;;;15.13;11.77;;;9.20;99.90;;;;;;5093314;28;20043;-68
2021/09/23 06:43:38;;;;;;;16.73;11.30;;;9.30;99.90;;;;;;5093460;28;20051;-68
2021/09/23 06:46:04;;;;;;;18.95;12.10;;;9.40;99.90;;;;;;5091762;28;20676;-68
2021/09/23 06:48:30;;;;;;;19.05;12.00;;;9.50;99.90;;;;;;5091124;28;20028;-68
2021/09/23 06:50:55;;;;;;;16.50;12.10;;;9.70;99.90;;;;;;5091748;28;20038;-67
2021/09/23 06:53:21;;;;;;;20.23;11.35;;;9.90;99.90;;;;;;5093027;28;20063;-68
2021/09/23 06:55:47;;;;;;;20.98;11.90;;;10.00;99.90;;;;;;5092759;28;20036;-67
2021/09/23 06:58:13;;;;;;;17.33;11.68;;;10.00;99.90;;;;;;5092851;28;20131;-67
2021/09/23 07:00:38;;;;;;;13.55;9.57;;;10.00;99.90;;;;;;5091393;28;20035;-68
2021/09/23 07:03:04;;;;;;;13.32;9.38;;;10.10;99.90;;;;;;5091389;28;20473;-68
2021/09/23 07:05:30;;;;;;;14.23;9.77;;;10.10;99.90;;;;;;5092863;28;20483;-68
2021/09/23 07:07:56;;;;;;;12.73;10.02;;;10.20;99.90;;;;;;5091651;28;20035;-68
2021/09/23 07:10:21;;;;;;;21.10;11.30;;;10.30;99.90;;;;;;5074181;28;20511;-68
2021/09/23 07:12:47;;;;;;;14.82;9.88;;;10.40;99.90;;;;;;5092266;28;20059;-68
2021/09/23 07:15:13;;;;;;;14.50;9.88;;;10.60;99.90;;;;;;5092859;28;20032;-68
2021/09/23 07:17:38;;;;;;;15.52;10.68;;;10.70;99.90;;;;;;5092644;28;20031;-68
2021/09/23 07:20:05;;;;;;;13.52;9.90;;;10.80;99.90;;;;;;5091960;28;20027;-68
2021/09/23 07:22:31;;;;;;;17.77;10.65;;;11.00;99.90;;;;;;5092310;28;20043;-68
2021/09/23 07:24:57;;;;;;;14.80;10.02;;;11.10;99.90;;;;;;5092299;28;20031;-68
2021/09/23 07:27:23;;;;;;;14.23;9.82;;;11.30;99.90;;;;;;5092372;28;20415;-67
2021/09/23 07:29:49;;;;;;;14.68;9.23;;;11.50;99.90;;;;;;5091914;28;20065;-68
2021/09/23 07:32:15;;;;;;;16.55;10.15;;;11.60;99.90;;;;;;5092913;28;20032;-66
2021/09/23 07:34:42;;;;;;;18.45;10.20;;;11.80;99.90;;;;;;5092674;28;20111;-66
2021/09/23 07:37:08;;;;;;;20.40;11.40;;;11.90;99.90;;;;;;5091961;28;20469;-66
2021/09/23 07:39:34;;;;;;;13.18;9.10;;;12.10;99.90;;;;;;5092441;28;20073;-68
2021/09/23 07:42:00;;;;;;;13.80;9.25;;;12.10;99.90;;;;;;5072889;28;20044;-68
2021/09/23 07:44:26;;;;;;;12.15;9.57;;;12.20;99.90;;;;;;5091683;28;20043;-68
2021/09/23 07:46:52;;;;;;;13.70;10.25;;;12.20;99.90;;;;;;5091367;28;20142;-66
2021/09/23 07:49:17;;;;;;;15.95;10.05;;;12.30;99.90;;;;;;5092012;28;20373;-66
2021/09/23 07:51:44;;;;;;;23.92;10.85;;;12.50;99.90;;;;;;5092266;28;20020;-66
2021/09/23 07:54:11;;;;;;;20.20;10.15;;;12.70;99.90;;;;;;5073264;28;20028;-66
2021/09/23 07:56:36;;;;;;;17.80;10.52;;;12.90;99.90;;;;;;5092612;28;20119;-66
2021/09/23 07:59:02;;;;;;;24.92;10.32;;;13.10;99.90;;;;;;5091362;28;20111;-66
2021/09/23 08:01:29;;;;;;;15.07;8.90;;;13.20;99.90;;;;;;5091852;28;20489;-66
2021/09/23 08:03:54;;;;;;;15.20;9.20;;;13.30;99.90;;;;;;5091020;28;20108;-66
2021/09/23 08:06:21;;;;;;;21.08;10.18;;;13.30;99.90;;;;;;5091842;28;20458;-66
2021/09/23 08:08:47;;;;;;;18.33;9.65;;;13.40;99.90;;;;;;5091333;28;20082;-66
2021/09/23 08:11:13;;;;;;;14.70;8.27;;;13.60;99.90;;;;;;5091171;28;20016;-66
2021/09/23 08:13:39;;;;;;;17.30;9.85;;;13.70;99.90;;;;;;5091892;28;20035;-67
2021/09/23 08:16:04;;;;;;;19.02;9.25;;;13.90;99.90;;;;;;5091232;28;20056;-66
2021/09/23 08:18:30;;;;;;;14.57;9.02;;;13.90;99.90;;;;;;5090983;28;20028;-66
2021/09/23 08:20:55;;;;;;;19.58;9.82;;;14.00;99.90;;;;;;5091051;28;20039;-66
2021/09/23 08:23:22;;;;;;;12.70;9.02;;;14.00;99.90;;;;;;5091816;28;20461;-66
2021/09/23 08:25:50;;;;;;;11.32;8.07;;;14.10;99.90;;;;;;5091170;28;20032;-66
2021/09/23 08:28:16;;;;;;;13.60;8.93;;;14.20;99.90;;;;;;5090845;28;20027;-67
2021/09/23 08:30:43;;;;;;;13.57;8.85;;;14.30;99.90;;;;;;5091804;28;20020;-66
2021/09/23 08:33:09;;;;;;;14.40;8.60;;;14.40;99.90;;;;;;5090895;28;20035;-67
2021/09/23 08:35:34;;;;;;;15.10;8.10;;;14.50;99.90;;;;;;5091517;28;20023;-67
2021/09/23 08:38:00;;;;;;;14.02;9.15;;;14.50;99.90;;;;;;5090519;28;20032;-67
2021/09/23 08:40:25;;;;;;;17.80;10.77;;;14.70;99.90;;;;;;5090809;28;20028;-66
2021/09/23 08:42:51;;;;;;;19.23;8.35;;;14.70;99.90;;;;;;5090485;28;20422;-66
2021/09/23 08:45:17;;;;;;;17.48;10.10;;;14.80;99.90;;;;;;5090782;28;20442;-66
2021/09/23 08:47:44;;;;;;;13.65;9.15;;;14.90;99.90;;;;;;5091403;28;20109;-67
2021/09/23 08:50:12;;;;;;;17.52;9.27;;;15.00;99.90;;;;;;5090342;28;20039;-66
2021/09/23 08:52:39;;;;;;;18.20;8.43;;;15.00;99.90;;;;;;5091126;28;20469;-67
2021/09/23 08:55:05;;;;;;;15.65;7.78;;;15.10;99.90;;;;;;5090256;28;20097;-66
2021/09/23 08:57:31;;;;;;;14.95;9.38;;;15.10;99.90;;;;;;5091404;28;20027;-67
2021/09/23 09:00:04;;;;;;;16.60;8.93;;;15.20;99.90;;;;;;5090221;28;20465;-66
2021/09/23 09:02:30;;;;;;;15.48;8.85;;;15.30;99.90;;;;;;5090412;28;20510;-67
2021/09/23 09:04:57;;;;;;;17.83;9.90;;;15.50;99.90;;;;;;5090293;28;20036;-67
2021/09/23 09:07:26;;;;;;;19.33;8.82;;;15.70;99.90;;;;;;5091149;28;20035;-67
2021/09/23 09:10:09;;;;;;;14.57;8.20;;;15.80;99.90;;;;;;5090096;28;20032;-66
2021/09/23 09:12:38;;;;;;;15.18;8.10;;;15.90;99.90;;;;;;5082969;28;20070;-67
2021/09/23 09:15:05;;;;;;;13.88;8.68;;;16.10;99.90;;;;;;5088986;28;20032;-66
2021/09/23 09:17:35;;;;;;;17.40;8.55;;;16.20;99.90;;;;;;5081906;28;20525;-67
2021/09/23 09:20:03;;;;;;;13.70;7.60;;;16.30;99.90;;;;;;5091484;28;20081;-67
2021/09/23 09:22:31;;;;;;;21.45;8.50;;;16.30;99.90;;;;;;5090893;28;20036;-67
2021/09/23 09:25:08;;;;;;;12.77;7.45;;;16.40;99.90;;;;;;5094090;28;20443;-67
2021/09/23 09:27:40;;;;;;;18.02;7.45;;;16.50;99.90;;;;;;5095078;28;20028;-67
2021/09/23 09:30:11;;;;;;;13.82;7.15;;;16.60;99.90;;;;;;5076583;28;20123;-67
2021/09/23 09:32:57;;;;;;;23.35;8.02;;;16.80;99.90;;;;;;5094968;28;20032;-67
2021/09/23 09:35:30;;;;;;;13.00;5.85;;;17.10;99.90;;;;;;5094459;28;20496;-67
2021/09/23 09:37:59;;;;;;;11.35;6.10;;;17.20;99.90;;;;;;5094110;28;20369;-67
2021/09/23 09:40:34;;;;;;;24.80;7.10;;;17.30;99.90;;;;;;5094146;28;20024;-67
2021/09/23 09:43:03;;;;;;;10.45;5.53;;;17.40;97.90;;;;;;5092177;28;20040;-66
2021/09/23 09:45:30;;;;;;;10.75;5.65;;;17.60;97.70;;;;;;5091222;28;20040;-67
2021/09/23 09:47:57;;;;;;;15.70;5.75;;;17.80;97.30;;;;;;5094191;28;20103;-66
2021/09/23 09:50:35;;;;;;;18.33;6.10;;;18.00;96.50;;;;;;5094321;28;20054;-66
2021/09/23 09:53:06;;;;;;;11.30;5.55;;;18.10;95.20;;;;;;5087693;28;20028;-68
2021/09/23 09:55:39;;;;;;;8.05;4.32;;;18.30;94.60;;;;;;5094134;28;20016;-66
2021/09/23 09:58:06;;;;;;;9.40;4.05;;;18.30;94.50;;;;;;5094104;28;20021;-67
2021/09/23 10:00:33;;;;;;;11.15;4.30;;;18.40;93.80;;;;;;5095087;28;20052;-66
2021/09/23 10:02:59;;;;;;;7.00;3.70;;;18.50;93.50;;;;;;5093438;28;20043;-66
2021/09/23 10:05:25;;;;;;;5.78;2.20;;;18.70;93.00;;;;;;5093871;28;20389;-67
2021/09/23 10:07:53;;;;;;;2.97;1.85;;;18.80;90.60;;;;;;5093948;28;20043;-66
2021/09/23 10:10:24;;;;;;;2.95;1.98;;;19.00;88.50;;;;;;5093761;28;20492;-67
2021/09/23 10:12:55;;;;;;;4.38;1.75;;;19.10;85.60;;;;;;5093396;28;20118;-67
2021/09/23 10:15:21;;;;;;;3.83;1.77;;;19.20;84.70;;;;;;5094088;28;20031;-67
2021/09/23 10:17:48;;;;;;;2.28;1.92;;;19.40;83.70;;;;;;5094428;28;20035;-67
2021/09/23 10:20:18;;;;;;;2.13;1.70;;;19.50;82.40;;;;;;5093307;28;20520;-67
2021/09/23 10:22:43;;;;;;;3.88;2.00;;;19.70;81.50;;;;;;5093999;28;20056;-67
2021/09/23 10:25:13;;;;;;;4.38;2.10;;;19.90;81.30;;;;;;5093285;28;20550;-67
2021/09/23 10:28:03;;;;;;;3.42;1.95;;;20.00;80.70;;;;;;5091383;28;20439;-67
2021/09/23 10:30:34;;;;;;;2.85;1.88;;;20.10;79.50;;;;;;5094133;28;20035;-67
2021/09/23 10:33:01;;;;;;;2.83;1.90;;;20.30;79.00;;;;;;5093257;28;20050;-66
2021/09/23 10:35:29;;;;;;;2.90;1.70;;;20.40;78.50;;;;;;5094034;28;20032;-67
2021/09/23 10:37:57;;;;;;;3.10;2.05;;;20.50;78.30;;;;;;5093437;28;20024;-66
2021/09/23 10:40:24;;;;;;;3.35;2.22;;;20.70;77.50;;;;;;5093144;28;20078;-67
2021/09/23 10:42:52;;;;;;;3.78;2.20;;;20.90;75.50;;;;;;5093233;28;20036;-67
2021/09/23 10:45:22;;;;;;;2.80;2.03;;;21.00;75.10;;;;;;5093022;28;20043;-67
2021/09/23 10:47:49;;;;;;;2.33;2.03;;;21.00;74.80;;;;;;5093547;28;20110;-67
2021/09/23 10:50:22;;;;;;;3.47;2.00;;;21.00;75.00;;;;;;5093056;28;20104;-66
2021/09/23 10:52:49;;;;;;;5.45;2.63;;;21.10;74.40;;;;;;5075652;28;20536;-67
2021/09/23 10:55:15;;;;;;;3.83;2.40;;;21.20;74.30;;;;;;5092771;28;20028;-67
2021/09/23 10:57:41;;;;;;;2.95;2.00;;;21.40;73.30;;;;;;5092942;28;20103;-67
2021/09/23 11:00:09;;;;;;;6.07;3.63;;;21.60;73.00;;;;;;5092540;28;20032;-66
2021/09/23 11:02:35;;;;;;;6.47;1.95;;;21.80;72.30;;;;;;5093389;28;20488;-67
2021/09/23 11:05:05;;;;;;;2.97;1.70;;;21.90;68.70;;;;;;5092294;28;20040;-66
2021/09/23 11:07:33;;;;;;;2.25;1.77;;;22.00;67.60;;;;;;5093299;28;20099;-67
2021/09/23 11:10:07;;;;;;;6.00;1.80;;;22.10;66.80;;;;;;5091965;28;20039;-67
2021/09/23 11:12:34;;;;;;;2.67;1.88;;;22.20;66.70;;;;;;5085782;28;20432;-67
2021/09/23 11:15:02;;;;;;;6.10;1.58;;;22.30;65.90;;;;;;5092445;28;20040;-67
2021/09/23 11:17:28;;;;;;;1.90;1.70;;;22.50;65.40;;;;;;5086630;28;20028;-67
2021/09/23 11:20:00;;;;;;;2.35;1.80;;;22.70;65.10;;;;;;5093057;28;20052;-67
2021/09/23 11:22:53;;;;;;;1.58;1.40;;;22.90;64.20;;;;;;5092890;28;20024;-67
2021/09/23 11:25:31;;;;;;;2.97;1.77;;;23.10;63.10;;;;;;5088691;28;20048;-67
2021/09/23 11:27:58;;;;;;;7.85;4.05;;;23.20;62.10;;;;;;5091936;28;20036;-67
2021/09/23 11:30:29;;;;;;;5.25;2.28;;;23.50;61.60;;;;;;5093366;28;20032;-67
2021/09/23 11:32:56;;;;;;;6.80;3.03;;;23.70;60.00;;;;;;5092595;28;20445;-67
2021/09/23 11:35:29;;;;;;;5.90;1.83;;;23.80;60.80;;;;;;5092220;28;20027;-67
2021/09/23 11:37:55;;;;;;;2.03;1.73;;;23.90;60.40;;;;;;5093148;28;20031;-67
2021/09/23 11:40:24;;;;;;;3.08;1.73;;;24.00;59.80;;;;;;5091903;28;20502;-66
2021/09/23 11:42:50;;;;;;;3.33;1.75;;;;;;;;;;5084226;28;20131;-67
2021/09/23 11:45:19;;;;;;;2.17;1.75;;;24.40;58.50;;;;;;5090285;28;20543;-67
2021/09/23 11:47:50;;;;;;;2.88;1.77;;;24.60;58.30;;;;;;5093394;28;20099;-68
2021/09/23 11:50:23;;;;;;;1.90;1.80;;;;;;;;;;5091408;28;20038;-67
2021/09/23 11:52:57;;;;;;;3.17;1.95;;;25.20;75.20;;;;;;5091725;28;20058;-68
2021/09/23 11:55:22;;;;;;;2.53;1.92;;;25.10;53.30;;;;;;5092008;28;20075;-67
2021/09/23 11:57:48;;;;;;;2.00;1.80;;;25.30;51.80;;;;;;5092726;28;20485;-67
2021/09/23 12:00:14;;;;;;;2.40;1.60;;;25.30;51.40;;;;;;5090998;28;20032;-67
2021/09/23 12:02:39;;;;;;;3.92;2.10;;;25.30;51.30;;;;;;5091989;28;20473;-67
2021/09/23 12:05:05;;;;;;;3.45;1.80;;;25.50;51.20;;;;;;5091105;28;20028;-67
2021/09/23 12:07:43;;;;;;;1.70;1.60;;;25.80;51.00;;;;;;5091770;28;20457;-67
2021/09/23 12:10:11;;;;;;;4.47;1.92;;;26.20;50.20;;;;;;5091306;28;20031;-67
2021/09/23 12:12:37;;;;;;;3.47;1.80;;;26.30;49.90;;;;;;5091657;28;20032;-67
2021/09/23 12:15:04;;;;;;;5.30;1.92;;;26.50;49.70;;;;;;5091294;28;20358;-69
2021/09/23 12:17:29;;;;;;;1.90;1.80;;;26.60;49.20;;;;;;5088453;28;20490;-67
2021/09/23 12:20:01;;;;;;;1.65;1.55;;;26.70;49.00;;;;;;5078462;28;20036;-67
2021/09/23 12:22:35;;;;;;;3.50;1.92;;;26.90;48.60;;;;;;5092438;28;20042;-67
2021/09/23 12:25:16;;;;;;;2.58;2.28;;;27.00;48.20;;;;;;5091316;28;20134;-67
2021/09/23 12:27:42;;;;;;;4.82;2.30;;;;;;;;;;5091476;28;20031;-67
2021/09/23 12:30:08;;;;;;;2.05;1.80;;;27.20;47.90;;;;;;5090454;28;20027;-67
2021/09/23 12:32:37;;;;;;;2.22;2.03;;;;;;;;;;5091685;28;20036;-67
2021/09/23 12:35:34;;;;;;;1.80;1.67;;;;;;;;;;5091295;28;20396;-67
2021/09/23 12:38:10;;;;;;;1.70;1.60;;;27.60;47.70;;;;;;5070177;28;20092;-67
2021/09/23 12:40:36;;;;;;;1.60;1.50;;;28.50;44.00;;;;;;5091719;28;20055;-68
2021/09/23 12:43:17;;;;;;;2.47;2.25;;;28.50;43.60;;;;;;5090852;28;20032;-67
2021/09/23 12:45:42;;;;;;;2.35;1.95;;;28.60;43.60;;;;;;5091383;28;20040;-67